Time;durP1;ratioP1;P1;durP2;ratioP2;P2;SDS_P1;SDS_P2;PMS_P1;PMS_P2;Temp;Humidity;BMP_temperature;BMP_pressure;BME280_temperature;BME280_humidity;BME280_pressure;Samples;Min_cycle;Max_cycle;Signal;HPM_P1;HPM_P2
2021/07/13 00:00:57;;;;;;;9.60;8.25;;;;;;;19.92;100.00;99710.78;5051260;28;20048;-58
2021/07/13 00:03:24;;;;;;;9.63;8.57;;;;;;;19.91;100.00;99721.69;5040498;28;20063;-58
2021/07/13 00:05:50;;;;;;;9.57;8.57;;;;;;;19.90;100.00;99726.22;5054128;28;20075;-58
2021/07/13 00:08:17;;;;;;;10.88;9.20;;;;;;;19.91;100.00;99721.69;5042177;28;20053;-59
2021/07/13 00:10:43;;;;;;;10.88;9.48;;;;;;;19.91;100.00;99722.53;5053190;28;20053;-57
2021/07/13 00:13:10;;;;;;;10.82;9.00;;;;;;;19.92;100.00;99721.53;5051294;28;20044;-56
2021/07/13 00:15:39;;;;;;;11.02;9.02;;;;;;;19.88;100.00;99721.97;5056027;28;20060;-57
2021/07/13 00:18:08;;;;;;;9.90;8.90;;;;;;;19.86;100.00;99721.25;5050734;28;20059;-57
2021/07/13 00:20:36;;;;;;;9.50;8.60;;;;;;;19.84;100.00;99726.78;5052240;28;20057;-57
2021/07/13 00:23:03;;;;;;;9.38;8.30;;;;;;;19.86;100.00;99730.19;5052680;28;20382;-58
2021/07/13 00:25:30;;;;;;;10.25;9.18;;;;;;;19.88;100.00;99721.97;5050126;28;20055;-58
2021/07/13 00:27:57;;;;;;;9.52;8.60;;;;;;;19.88;100.00;99730.03;5062877;28;20064;-58
2021/07/13 00:30:24;;;;;;;9.85;8.75;;;;;;;19.86;100.00;99723.94;5050500;28;20045;-57
2021/07/13 00:32:52;;;;;;;10.00;8.32;;;;;;;19.86;100.00;99713.22;5049850;28;20056;-57
2021/07/13 00:35:19;;;;;;;11.52;8.75;;;;;;;19.85;100.00;99714.19;5039512;28;20071;-58
2021/07/13 00:37:46;;;;;;;9.90;8.90;;;;;;;19.85;100.00;99714.19;5057455;28;20523;-58
2021/07/13 00:40:16;;;;;;;10.98;8.70;;;;;;;19.85;100.00;99715.03;5054417;28;20068;-57
2021/07/13 00:42:44;;;;;;;9.87;8.87;;;;;;;19.85;100.00;99716.88;5053375;28;20132;-58
2021/07/13 00:45:11;;;;;;;10.20;9.13;;;;;;;19.84;100.00;99717.88;5059712;28;20054;-57
2021/07/13 00:47:38;;;;;;;10.20;9.10;;;;;;;19.79;100.00;99726.41;5057457;28;20492;-58
2021/07/13 00:50:06;;;;;;;11.02;8.70;;;;;;;19.75;100.00;99724.16;5060315;28;20052;-58
2021/07/13 00:52:33;;;;;;;11.13;9.40;;;;;;;19.72;100.00;99717.22;5049243;28;20065;-57
2021/07/13 00:55:01;;;;;;;12.05;9.52;;;;;;;19.72;100.00;99709.16;5057180;28;20514;-58
2021/07/13 00:57:27;;;;;;;11.45;9.00;;;;;;;19.72;100.00;99711.84;5055506;28;20079;-57
2021/07/13 00:59:55;;;;;;;8.77;7.88;;;;;;;19.69;100.00;99705.91;5052833;28;20342;-58
2021/07/13 01:02:23;;;;;;;9.82;8.82;;;;;;;19.68;100.00;99702.38;5051953;28;20045;-58
2021/07/13 01:05:00;;;;;;;10.02;8.10;;;;;;;19.66;100.00;99703.56;5049049;28;20547;-58
2021/07/13 01:07:29;;;;;;;10.32;8.27;;;;;;;19.62;100.00;99700.31;5056569;28;20051;-58
2021/07/13 01:10:19;;;;;;;11.57;8.90;;;;;;;19.58;100.00;99698.91;5057016;28;20059;-57
2021/07/13 01:12:45;;;;;;;11.95;8.85;;;;;;;19.55;100.00;99699.19;5048136;28;20494;-58
2021/07/13 01:15:16;;;;;;;13.73;9.23;;;;;;;19.55;100.00;99708.09;5035238;28;20049;-57
2021/07/13 01:17:55;;;;;;;10.75;9.00;;;;;;;19.51;100.00;99701.34;5042158;28;20052;-58
2021/07/13 01:20:59;;;;;;;13.23;9.93;;;;;;;19.49;100.00;99705.13;5056126;28;20058;-58
2021/07/13 01:23:28;;;;;;;9.65;8.63;;;;;;;19.46;100.00;99708.09;5047262;28;20064;-57
2021/07/13 01:26:03;;;;;;;13.18;10.00;;;;;;;19.41;100.00;99705.84;5043174;28;20042;-59
2021/07/13 01:28:36;;;;;;;10.23;9.10;;;;;;;19.39;100.00;99704.28;5066102;28;20060;-57
2021/07/13 01:31:05;;;;;;;10.77;9.68;;;;;;;19.40;100.00;99695.22;5043589;28;20053;-57
2021/07/13 01:33:33;;;;;;;12.25;10.02;;;;;;;19.38;100.00;99705.25;5039556;28;20076;-58
2021/07/13 01:36:16;;;;;;;13.02;9.80;;;;;;;19.36;100.00;99709.97;5040540;28;20059;-57
2021/07/13 01:38:45;;;;;;;13.52;10.55;;;;;;;19.35;100.00;99703.75;5029668;28;20056;-57
2021/07/13 01:41:18;;;;;;;12.20;9.50;;;;;;;19.32;100.00;99706.72;5044936;28;20064;-58
2021/07/13 01:43:45;;;;;;;12.20;10.55;;;;;;;19.33;100.00;99704.88;5037296;28;20052;-58
2021/07/13 01:46:13;;;;;;;10.23;9.23;;;;;;;19.31;100.00;99696.13;5043977;28;20041;-56
2021/07/13 01:48:42;;;;;;;13.80;10.48;;;;;;;19.27;100.00;99693.72;5048399;28;20440;-59
2021/07/13 01:51:11;;;;;;;13.82;10.38;;;;;;;19.26;100.00;99681.28;5047436;28;20480;-57
2021/07/13 01:53:38;;;;;;;13.05;10.32;;;;;;;19.23;100.00;99680.72;5052992;28;20048;-57
2021/07/13 01:56:07;;;;;;;15.52;10.65;;;;;;;19.17;100.00;99676.78;5034846;28;20063;-57
2021/07/13 01:58:35;;;;;;;15.93;11.27;;;;;;;19.17;100.00;99673.25;5027502;28;20049;-57
2021/07/13 02:01:12;;;;;;;12.98;11.55;;;;;;;19.12;100.00;99681.72;5021051;28;20129;-57
2021/07/13 02:03:42;;;;;;;15.10;11.75;;;;;;;19.11;100.00;99685.41;5025605;28;20056;-58
2021/07/13 02:06:10;;;;;;;13.77;11.45;;;;;;;19.12;100.00;99691.63;5028972;28;20143;-57
2021/07/13 02:08:41;;;;;;;16.38;13.02;;;;;;;19.13;100.00;99699.53;5019023;28;20056;-57
2021/07/13 02:11:09;;;;;;;14.70;12.43;;;;;;;19.15;100.00;99697.56;5023546;28;20765;-58
2021/07/13 02:13:37;;;;;;;14.77;12.75;;;;;;;19.14;100.00;99697.69;5021066;28;20528;-58
2021/07/13 02:16:05;;;;;;;17.13;12.32;;;;;;;19.12;100.00;99702.34;5021264;28;20053;-57
2021/07/13 02:18:32;;;;;;;15.00;13.40;;;;;;;19.09;100.00;99703.47;5022894;28;21249;-58
2021/07/13 02:20:59;;;;;;;14.70;13.10;;;;;;;19.09;100.00;99703.47;5032758;28;20590;-58
2021/07/13 02:23:25;;;;;;;14.10;12.48;;;;;;;19.10;100.00;99699.81;5028599;28;20046;-58
2021/07/13 02:25:55;;;;;;;13.38;11.85;;;;;;;19.11;100.00;99706.88;5046833;28;20063;-57
2021/07/13 02:28:32;;;;;;;16.40;11.95;;;;;;;19.10;100.00;99699.81;5027749;28;20413;-56
2021/07/13 02:31:11;;;;;;;16.50;13.15;;;;;;;19.08;100.00;99699.09;5030478;28;20399;-58
2021/07/13 02:33:57;;;;;;;15.03;12.97;;;;;;;19.08;100.00;99691.06;5028657;28;20052;-57
2021/07/13 02:36:28;;;;;;;14.70;12.18;;;;;;;19.11;100.00;99696.13;5026078;28;20050;-58
2021/07/13 02:38:57;;;;;;;14.52;12.35;;;;;;;19.15;100.00;99694.03;5031393;28;20044;-58
2021/07/13 02:41:24;;;;;;;17.83;12.73;;;;;;;19.16;100.00;99693.03;5036190;28;20137;-57
2021/07/13 02:43:52;;;;;;;15.82;11.63;;;;;;;19.17;100.00;99692.91;5036121;28;20044;-56
2021/07/13 02:46:21;;;;;;;14.48;12.30;;;;;;;19.17;100.00;99684.84;5048366;28;20051;-58
2021/07/13 02:48:50;;;;;;;14.55;13.05;;;;;;;19.17;100.00;99674.09;5023226;28;20576;-57
2021/07/13 02:51:18;;;;;;;17.02;12.90;;;;;;;19.17;100.00;99676.78;5029411;28;20113;-58
2021/07/13 02:53:47;;;;;;;16.25;12.75;;;;;;;19.17;100.00;99679.47;5031778;28;20053;-58
2021/07/13 02:56:15;;;;;;;15.00;12.77;;;;;;;19.17;100.00;99676.78;5027949;28;20049;-57
2021/07/13 02:58:43;;;;;;;13.40;11.88;;;;;;;19.14;100.00;99678.91;5043216;28;20063;-57
2021/07/13 03:01:11;;;;;;;16.30;13.18;;;;;;;19.16;100.00;99687.66;5031901;28;20053;-56
2021/07/13 03:03:41;;;;;;;18.10;13.82;;;;;;;19.20;100.00;99691.75;5032283;28;20663;-57
2021/07/13 03:06:08;;;;;;;15.20;13.32;;;;;;;19.23;100.00;99686.94;5014789;28;20136;-56
2021/07/13 03:08:35;;;;;;;16.08;12.85;;;;;;;19.24;100.00;99685.09;5024632;28;20053;-60
2021/07/13 03:11:03;;;;;;;16.17;13.25;;;;;;;19.21;100.00;99678.16;5038619;28;20135;-60
2021/07/13 03:13:32;;;;;;;16.17;13.25;;;;;;;19.18;100.00;99675.81;5027494;28;20456;-60
2021/07/13 03:15:59;;;;;;;14.55;12.45;;;;;;;19.20;100.00;99681.03;5028396;28;20064;-59
2021/07/13 03:18:29;;;;;;;15.40;12.73;;;;;;;19.19;100.00;99684.69;5015316;28;20148;-60
2021/07/13 03:21:00;;;;;;;17.97;13.77;;;;;;;19.17;100.00;99679.47;5010520;28;20519;-58
2021/07/13 03:23:27;;;;;;;15.23;13.05;;;;;;;19.16;100.00;99684.97;5019413;28;20507;-59
2021/07/13 03:25:54;;;;;;;16.95;13.93;;;;;;;19.16;100.00;99679.63;5021458;28;20057;-60
2021/07/13 03:28:24;;;;;;;16.52;13.50;;;;;;;19.14;100.00;99687.81;5023687;28;21085;-55
2021/07/13 03:30:53;;;;;;;19.48;13.82;;;;;;;19.14;100.00;99687.81;5024861;28;20080;-58
2021/07/13 03:33:21;;;;;;;17.63;13.77;;;;;;;19.15;100.00;99691.34;5024570;28;20069;-55
2021/07/13 03:35:48;;;;;;;17.23;14.40;;;;;;;19.14;100.00;99687.81;5047782;28;20529;-58
2021/07/13 03:38:17;;;;;;;17.35;14.93;;;;;;;19.15;100.00;99685.97;5019538;28;20049;-57
2021/07/13 03:40:45;;;;;;;19.67;14.02;;;;;;;19.14;100.00;99689.66;5030450;28;20561;-56
2021/07/13 03:43:12;;;;;;;17.23;14.85;;;;;;;19.11;100.00;99685.41;5028980;28;20084;-55
2021/07/13 03:45:38;;;;;;;17.83;14.40;;;;;;;19.11;100.00;99689.94;5023562;28;20131;-57
2021/07/13 03:48:09;;;;;;;17.45;14.52;;;;;;;19.07;100.00;99689.34;5025931;28;20042;-58
2021/07/13 03:50:36;;;;;;;18.48;15.45;;;;;;;19.06;100.00;99693.03;5013702;28;20135;-60
2021/07/13 03:53:03;;;;;;;18.92;14.48;;;;;;;19.04;100.00;99686.97;5021404;28;21114;-58
2021/07/13 03:55:31;;;;;;;18.10;14.48;;;;;;;19.05;100.00;99685.13;5025706;28;20085;-55
2021/07/13 03:57:57;;;;;;;19.00;15.55;;;;;;;19.06;100.00;99682.28;5026589;28;20077;-58
2021/07/13 04:00:31;;;;;;;18.52;15.10;;;;;;;19.07;100.00;99670.56;5032407;28;20140;-58
2021/07/13 04:02:58;;;;;;;19.20;15.68;;;;;;;19.07;100.00;99672.41;5020027;28;20076;-58
2021/07/13 04:05:25;;;;;;;20.20;16.48;;;;;;;19.07;100.00;99673.25;5020439;28;20045;-58
2021/07/13 04:07:52;;;;;;;20.73;16.77;;;;;;;19.05;100.00;99672.53;5036886;28;20073;-59
2021/07/13 04:10:18;;;;;;;18.25;14.95;;;;;;;19.03;100.00;99666.50;5006230;28;20077;-58
2021/07/13 04:12:45;;;;;;;18.80;15.48;;;;;;;19.02;100.00;99670.19;5037908;28;20103;-59
2021/07/13 04:15:13;;;;;;;21.38;17.25;;;;;;;19.00;100.00;99664.09;5017932;28;20049;-57
2021/07/13 04:17:41;;;;;;;23.50;17.70;;;;;;;18.99;100.00;99667.78;5025499;28;20461;-59
2021/07/13 04:20:10;;;;;;;20.67;16.90;;;;;;;18.98;100.00;99660.72;5024290;28;20049;-55
2021/07/13 04:22:36;;;;;;;29.40;20.50;;;;;;;18.97;100.00;99659.03;5018719;28;20111;-57
2021/07/13 04:25:05;;;;;;;25.42;19.00;;;;;;;18.95;100.00;99661.00;5023931;28;20136;-57
2021/07/13 04:27:32;;;;;;;27.05;19.65;;;;;;;18.96;100.00;99656.47;5022707;28;20045;-55
2021/07/13 04:29:59;;;;;;;26.30;19.92;;;;;;;18.97;100.00;99650.97;5019553;28;20049;-57
2021/07/13 04:32:30;;;;;;;28.75;20.38;;;;;;;19.00;100.00;99653.38;5022354;28;20080;-62
2021/07/13 04:34:57;;;;;;;29.10;19.80;;;;;;;18.99;100.00;99649.00;5022585;28;20037;-59
2021/07/13 04:37:24;;;;;;;26.10;20.02;;;;;;;18.98;100.00;99647.28;5033617;28;20049;-59
2021/07/13 04:39:52;;;;;;;28.17;19.05;;;;;;;18.96;100.00;99635.84;5024126;28;20393;-57
2021/07/13 04:42:18;;;;;;;26.88;18.92;;;;;;;18.94;100.00;99635.16;5026950;28;20393;-57
2021/07/13 04:44:45;;;;;;;25.00;19.45;;;;;;;18.95;100.00;99631.47;5027638;28;20049;-58
2021/07/13 04:47:11;;;;;;;22.88;18.48;;;;;;;18.93;100.00;99631.63;5017769;28;20473;-55
2021/07/13 04:49:38;;;;;;;23.42;17.77;;;;;;;18.95;100.00;99626.13;5029111;28;20053;-58
2021/07/13 04:52:05;;;;;;;23.95;17.70;;;;;;;18.95;100.00;99620.75;5025996;28;20053;-59
2021/07/13 04:54:33;;;;;;;28.02;19.42;;;;;;;18.96;100.00;99619.75;5039604;28;20049;-58
2021/07/13 04:57:01;;;;;;;24.33;19.08;;;;;;;18.96;100.00;99608.19;5025112;28;20045;-58
2021/07/13 04:59:27;;;;;;;28.15;21.02;;;;;;;18.95;100.00;99612.69;5024345;28;20071;-58
2021/07/13 05:01:54;;;;;;;27.63;20.48;;;;;;;18.94;100.00;99594.91;5032172;28;20050;-58
2021/07/13 05:04:22;;;;;;;28.42;21.65;;;;;;;18.90;100.00;99586.28;5015955;28;20050;-59
2021/07/13 05:06:48;;;;;;;31.00;21.77;;;;;;;18.89;100.00;99578.38;5032605;28;20124;-58
2021/07/13 05:09:15;;;;;;;27.90;21.38;;;;;;;18.90;100.00;99578.25;5023456;28;20046;-56
2021/07/13 05:11:42;;;;;;;32.38;21.50;;;;;;;18.93;100.00;99575.28;5010980;28;20049;-59
2021/07/13 05:14:08;;;;;;;30.63;21.10;;;;;;;18.99;100.00;99563.13;5034373;28;20049;-59
2021/07/13 05:16:35;;;;;;;31.05;22.25;;;;;;;19.02;100.00;99562.00;5015159;28;20065;-58
2021/07/13 05:19:02;;;;;;;29.33;20.20;;;;;;;19.00;100.00;99554.09;5031673;28;20049;-59
2021/07/13 05:21:28;;;;;;;28.45;19.05;;;;;;;18.99;100.00;99552.41;5018224;28;20056;-59
2021/07/13 05:23:55;;;;;;;27.77;18.58;;;;;;;18.98;100.00;99553.38;5002389;28;20120;-57
2021/07/13 05:26:21;;;;;;;26.45;19.63;;;;;;;19.00;100.00;99555.94;5019922;28;20049;-58
2021/07/13 05:28:50;;;;;;;26.15;18.27;;;;;;;18.95;100.00;99551.00;5025002;28;20408;-59
2021/07/13 05:31:17;;;;;;;24.25;18.92;;;;;;;18.94;100.00;99551.97;5028567;28;20058;-59
2021/07/13 05:33:43;;;;;;;24.35;17.95;;;;;;;18.94;100.00;99543.94;5015147;28;20053;-59
2021/07/13 05:36:10;;;;;;;25.15;18.33;;;;;;;18.95;100.00;99539.41;5020868;28;20603;-57
2021/07/13 05:38:37;;;;;;;27.88;18.95;;;;;;;18.94;100.00;99541.25;5026722;28;20436;-59
2021/07/13 05:41:03;;;;;;;21.92;17.75;;;;;;;18.93;100.00;99542.25;5019210;28;20053;-59
2021/07/13 05:43:30;;;;;;;25.73;17.98;;;;;;;18.92;100.00;99546.75;5034610;28;20645;-59
2021/07/13 05:45:56;;;;;;;22.52;18.13;;;;;;;18.87;100.00;99550.88;5009539;28;20049;-57
2021/07/13 05:48:23;;;;;;;21.08;17.42;;;;;;;18.79;100.00;99556.97;5028951;28;20644;-56
2021/07/13 05:50:49;;;;;;;22.67;17.85;;;;;;;18.73;100.00;99551.34;5022387;28;20417;-55
2021/07/13 05:53:16;;;;;;;22.98;17.38;;;;;;;18.71;100.00;99551.50;5014374;28;20053;-59
2021/07/13 05:55:42;;;;;;;20.77;15.98;;;;;;;18.66;100.00;99563.63;5015908;28;20064;-58
2021/07/13 05:58:09;;;;;;;19.05;15.40;;;;;;;18.61;100.00;99560.53;5003822;28;20057;-59
2021/07/13 06:00:35;;;;;;;20.83;16.45;;;;;;;18.60;100.00;99574.91;5020173;28;20045;-56
2021/07/13 06:03:02;;;;;;;19.98;17.15;;;;;;;18.61;100.00;99573.94;5015859;28;20465;-58
2021/07/13 06:05:29;;;;;;;23.75;16.48;;;;;;;18.63;100.00;99577.31;5023156;28;20516;-58
2021/07/13 06:07:56;;;;;;;19.92;16.27;;;;;;;18.65;100.00;99594.13;5022272;28;20363;-59
2021/07/13 06:10:23;;;;;;;18.75;15.00;;;;;;;18.60;100.00;99607.09;5022697;28;20048;-58
2021/07/13 06:12:50;;;;;;;20.00;16.00;;;;;;;18.56;100.00;99604.69;5028209;28;20057;-57
2021/07/13 06:15:18;;;;;;;19.92;15.63;;;;;;;18.59;100.00;99608.94;5019168;28;20046;-57
2021/07/13 06:17:45;;;;;;;20.33;16.20;;;;;;;18.59;100.00;99614.28;5018010;28;20137;-59
2021/07/13 06:20:12;;;;;;;18.17;15.15;;;;;;;18.58;100.00;99613.44;5030125;28;20053;-58
2021/07/13 06:22:39;;;;;;;18.20;14.20;;;;;;;18.55;100.00;99627.13;5025908;28;20065;-59
2021/07/13 06:25:06;;;;;;;19.67;13.88;;;;;;;18.54;100.00;99625.44;5029411;28;20051;-56
2021/07/13 06:27:33;;;;;;;17.30;13.77;;;;;;;18.51;100.00;99624.84;5020862;28;20128;-56
2021/07/13 06:30:00;;;;;;;17.20;13.55;;;;;;;18.53;100.00;99621.06;5029489;28;20054;-55
2021/07/13 06:32:27;;;;;;;15.75;14.05;;;;;;;18.56;100.00;99620.78;5021935;28;20056;-60
2021/07/13 06:34:53;;;;;;;16.10;14.18;;;;;;;18.61;100.00;99627.56;5022794;28;20049;-57
2021/07/13 06:37:20;;;;;;;15.48;12.85;;;;;;;18.64;100.00;99616.56;5023234;28;20053;-59
2021/07/13 06:39:46;;;;;;;17.30;13.73;;;;;;;18.68;100.00;99612.59;5020349;28;20061;-58
2021/07/13 06:42:13;;;;;;;17.15;13.63;;;;;;;18.71;100.00;99606.97;5033456;28;20069;-56
2021/07/13 06:44:40;;;;;;;14.95;13.25;;;;;;;18.69;100.00;99595.53;5016307;28;20120;-57
2021/07/13 06:47:06;;;;;;;14.70;13.13;;;;;;;18.72;100.00;99603.28;5017140;28;20045;-59
2021/07/13 06:49:33;;;;;;;17.45;13.85;;;;;;;18.72;100.00;99588.06;5040033;28;20044;-60
2021/07/13 06:52:00;;;;;;;15.38;12.82;;;;;;;18.72;100.00;99592.56;5014344;28;20056;-59
2021/07/13 06:54:27;;;;;;;20.98;13.73;;;;;;;18.73;100.00;99591.56;5034781;28;20091;-59
2021/07/13 06:56:54;;;;;;;19.48;14.27;;;;;;;18.74;100.00;99595.94;5028794;28;20524;-57
2021/07/13 06:59:20;;;;;;;18.38;12.93;;;;;;;18.79;100.00;99601.72;5027732;28;20045;-58
2021/07/13 07:01:47;;;;;;;20.33;13.43;;;;;;;18.80;100.00;99609.63;5038627;28;20488;-56
2021/07/13 07:04:15;;;;;;;14.00;11.48;;;;;;;18.75;100.00;99613.72;5029188;28;20045;-58
2021/07/13 07:06:42;;;;;;;13.57;11.30;;;;;;;18.72;100.00;99620.22;5006694;28;20052;-58
2021/07/13 07:09:08;;;;;;;15.02;11.98;;;;;;;18.71;100.00;99620.38;5019326;28;20049;-59
2021/07/13 07:11:35;;;;;;;14.05;11.63;;;;;;;18.75;100.00;99624.44;5027026;28;20049;-60
2021/07/13 07:14:03;;;;;;;14.20;11.68;;;;;;;18.79;100.00;99625.84;5047284;28;20052;-60
2021/07/13 07:16:29;;;;;;;13.30;11.90;;;;;;;18.80;100.00;99625.72;5035716;28;20042;-60
2021/07/13 07:18:56;;;;;;;15.55;11.43;;;;;;;18.84;100.00;99628.97;5038981;28;20064;-60
2021/07/13 07:21:22;;;;;;;13.23;11.93;;;;;;;18.87;100.00;99632.22;5026062;28;20055;-60
2021/07/13 07:23:49;;;;;;;13.07;11.73;;;;;;;18.89;100.00;99624.84;5034829;28;20656;-59
2021/07/13 07:26:15;;;;;;;11.60;10.40;;;;;;;18.94;100.00;99619.06;5029552;28;20584;-57
2021/07/13 07:28:42;;;;;;;11.38;10.18;;;;;;;18.95;100.00;99609.16;5029805;28;20064;-59
2021/07/13 07:31:09;;;;;;;11.80;10.50;;;;;;;18.98;100.00;99615.09;5025160;28;20505;-58
2021/07/13 07:33:36;;;;;;;11.82;10.30;;;;;;;19.00;100.00;99621.19;5004037;28;20061;-59
2021/07/13 07:36:03;;;;;;;11.75;10.57;;;;;;;19.05;100.00;99616.19;5020401;28;20048;-59
2021/07/13 07:38:30;;;;;;;12.27;9.82;;;;;;;19.09;100.00;99611.41;5028753;28;20770;-58
2021/07/13 07:40:56;;;;;;;12.77;11.00;;;;;;;19.10;100.00;99615.78;5023047;28;20069;-56
2021/07/13 07:43:23;;;;;;;11.48;10.18;;;;;;;19.20;100.00;99601.31;5028515;28;20528;-56
2021/07/13 07:45:49;;;;;;;11.50;10.30;;;;;;;19.34;100.00;99599.19;5011319;28;20049;-59
2021/07/13 07:48:16;;;;;;;12.85;9.68;;;;;;;19.51;100.00;99596.59;5018436;28;20053;-59
2021/07/13 07:50:43;;;;;;;13.18;10.27;;;;;;;19.75;100.00;99598.72;5022050;28;20056;-59
2021/07/13 07:53:09;;;;;;;11.68;9.88;;;;;;;19.95;100.00;99589.56;5023484;28;20050;-58
2021/07/13 07:55:36;;;;;;;11.60;9.85;;;;;;;20.04;100.00;99584.28;5036034;28;20057;-57
2021/07/13 07:58:04;;;;;;;9.32;8.40;;;;;;;20.12;100.00;99584.38;5011786;28;20054;-58
2021/07/13 08:00:31;;;;;;;8.63;7.82;;;;;;;20.21;100.00;99578.91;5015756;28;20050;-60
2021/07/13 08:02:57;;;;;;;11.82;8.05;;;;;;;20.27;100.00;99588.22;5021503;28;20041;-57
2021/07/13 08:05:52;;;;;;;9.10;8.20;;;;;;;20.40;100.00;99579.78;5024627;28;20103;-58
2021/07/13 08:08:18;;;;;;;;;;;;;;;20.44;100.00;99579.34;5025884;28;20064;-58
2021/07/13 08:10:45;;;;;;;9.20;8.27;;;;;;;20.49;100.00;99570.78;5025964;28;19921;-58
2021/07/13 08:13:11;;;;;;;8.48;7.65;;;;;;;20.49;100.00;99581.53;5022704;28;20127;-58
2021/07/13 08:15:38;;;;;;;9.13;7.72;;;;;;;20.49;100.00;99584.22;5030938;28;20239;-58
2021/07/13 08:18:04;;;;;;;9.25;7.90;;;;;;;20.53;100.00;99583.78;5032448;28;20045;-59
2021/07/13 08:20:31;;;;;;;9.48;7.88;;;;;;;20.61;100.00;99586.56;5024711;28;20080;-57
2021/07/13 08:22:59;;;;;;;7.68;6.97;;;;;;;20.69;100.00;99587.59;5028337;28;20077;-58
2021/07/13 08:25:26;;;;;;;8.32;7.32;;;;;;;20.80;100.00;99581.97;5027863;28;20137;-60
2021/07/13 08:27:52;;;;;;;7.35;6.65;;;;;;;21.06;100.00;99573.91;5031258;28;20059;-59
2021/07/13 08:30:19;;;;;;;8.75;7.47;;;;;;;21.26;100.00;99580.78;5025475;28;20408;-59
2021/07/13 08:32:46;;;;;;;7.47;5.78;;;;;;;21.26;99.14;99572.69;5031928;28;20497;-60
2021/07/13 08:35:13;;;;;;;7.15;5.75;;;;;;;21.30;100.00;99579.47;5035058;28;20049;-58
2021/07/13 08:37:40;;;;;;;6.93;6.03;;;;;;;21.38;100.00;99581.38;5035467;28;20049;-58
2021/07/13 08:40:09;;;;;;;5.80;5.30;;;;;;;21.35;97.90;99583.38;5038873;28;20501;-59
2021/07/13 08:42:41;;;;;;;6.38;5.65;;;;;;;21.22;97.56;99592.91;5032740;28;20065;-59
2021/07/13 08:45:10;;;;;;;5.35;4.85;;;;;;;21.05;97.93;99593.75;5043222;28;20492;-58
2021/07/13 08:47:42;;;;;;;6.28;5.68;;;;;;;20.96;98.41;99599.06;5039093;28;20684;-59
2021/07/13 08:50:10;;;;;;;6.10;5.53;;;;;;;20.90;97.13;99596.19;5027196;28;20060;-59
2021/07/13 08:52:36;;;;;;;6.20;5.70;;;;;;;20.95;98.74;99597.38;5031571;28;20072;-57
2021/07/13 08:55:05;;;;;;;5.72;5.07;;;;;;;21.01;99.44;99595.91;5028695;28;20066;-58
2021/07/13 08:57:32;;;;;;;5.72;5.22;;;;;;;21.02;98.06;99600.28;5037512;28;20053;-58
2021/07/13 08:59:59;;;;;;;5.90;5.40;;;;;;;21.12;99.15;99606.41;5021750;28;20049;-57
2021/07/13 09:02:25;;;;;;;7.05;4.97;;;;;;;21.24;98.83;99609.75;5030978;28;20049;-58
2021/07/13 09:04:52;;;;;;;7.20;6.07;;;;;;;21.28;98.63;99611.94;5031389;28;20516;-57
2021/07/13 09:07:18;;;;;;;5.72;5.15;;;;;;;21.23;98.62;99614.28;5031079;28;20060;-58
2021/07/13 09:09:48;;;;;;;5.60;4.88;;;;;;;21.15;97.25;99624.94;5032497;28;20524;-58
2021/07/13 09:12:20;;;;;;;5.70;5.20;;;;;;;21.04;96.27;99622.53;5029855;28;20084;-59
2021/07/13 09:15:00;;;;;;;5.07;4.65;;;;;;;21.07;97.74;99627.59;5040413;28;20056;-59
2021/07/13 09:17:49;;;;;;;6.28;5.68;;;;;;;21.08;98.54;99623.91;5035910;28;20053;-59
2021/07/13 09:20:22;;;;;;;6.20;5.60;;;;;;;21.07;98.91;99626.75;5037974;28;20084;-59
2021/07/13 09:22:53;;;;;;;6.07;5.53;;;;;;;21.04;98.74;99630.59;5028604;28;20080;-59
2021/07/13 09:25:23;;;;;;;5.70;5.20;;;;;;;20.94;98.73;99624.44;5035421;28;20050;-59
2021/07/13 09:28:16;;;;;;;6.43;5.82;;;;;;;20.84;99.66;99619.16;5044499;28;20055;-59
2021/07/13 09:30:44;;;;;;;6.07;5.45;;;;;;;20.77;98.91;99615.44;5034739;28;20394;-58
2021/07/13 09:33:15;;;;;;;6.20;5.60;;;;;;;20.69;98.29;99614.50;5032742;28;20064;-60
2021/07/13 09:36:07;;;;;;;7.32;5.53;;;;;;;20.61;99.06;99608.06;5042315;28;20057;-58
2021/07/13 09:38:37;;;;;;;6.95;5.63;;;;;;;20.62;100.00;99614.25;5026618;28;20410;-57
2021/07/13 09:41:19;;;;;;;6.15;5.63;;;;;;;20.61;100.00;99613.44;5021436;28;20072;-57
2021/07/13 09:43:53;;;;;;;7.15;6.53;;;;;;;20.60;100.00;99602.84;5026692;28;20053;-59
2021/07/13 09:46:21;;;;;;;6.78;5.95;;;;;;;20.58;100.00;99600.31;5030063;28;20046;-58
2021/07/13 09:49:12;;;;;;;6.53;5.93;;;;;;;20.59;100.00;99585.84;5023858;28;20119;-59
2021/07/13 09:51:45;;;;;;;6.72;6.13;;;;;;;20.61;100.00;99591.09;5026354;28;20710;-58
2021/07/13 09:54:35;;;;;;;7.60;6.40;;;;;;;20.64;100.00;99582.69;5035422;28;20144;-58
2021/07/13 09:57:06;;;;;;;7.35;5.78;;;;;;;20.60;100.00;99584.84;5044698;28;20048;-58
2021/07/13 09:59:32;;;;;;;6.90;6.10;;;;;;;20.54;99.90;99585.47;5041343;28;20044;-56
2021/07/13 10:02:04;;;;;;;8.00;6.57;;;;;;;20.50;99.73;99589.47;5049568;28;20056;-58
2021/07/13 10:04:33;;;;;;;7.20;6.45;;;;;;;20.54;99.86;99592.69;5048354;28;20448;-59
2021/07/13 10:07:04;;;;;;;6.60;6.00;;;;;;;20.52;99.41;99600.06;5038863;28;20052;-58
2021/07/13 10:09:35;;;;;;;6.45;5.65;;;;;;;20.54;99.13;99609.69;5053454;28;20052;-59
2021/07/13 10:12:11;;;;;;;6.13;5.63;;;;;;;20.58;99.43;99611.06;5061050;28;20051;-62
2021/07/13 10:14:39;;;;;;;7.00;6.32;;;;;;;20.61;99.54;99612.59;5043738;28;20056;-58
2021/07/13 10:17:07;;;;;;;8.20;7.40;;;;;;;20.59;99.37;99612.75;5047915;28;20052;-58
2021/07/13 10:19:39;;;;;;;7.70;6.88;;;;;;;20.58;99.32;99611.06;5057337;28;20087;-56
2021/07/13 10:22:06;;;;;;;7.18;6.20;;;;;;;20.57;99.06;99613.91;5051858;28;20056;-58
2021/07/13 10:24:34;;;;;;;7.20;6.53;;;;;;;20.51;98.86;99607.28;5042277;28;20048;-58
2021/07/13 10:27:02;;;;;;;6.75;6.15;;;;;;;20.52;98.43;99614.34;5053766;28;20404;-59
2021/07/13 10:29:31;;;;;;;8.10;6.70;;;;;;;20.54;98.30;99614.22;5041316;28;20049;-59
2021/07/13 10:32:03;;;;;;;7.77;6.93;;;;;;;20.54;98.05;99604.28;5045155;28;20519;-57
2021/07/13 10:34:52;;;;;;;8.43;6.50;;;;;;;20.55;98.15;99605.13;5032941;28;21822;-58
2021/07/13 10:37:42;;;;;;;6.90;6.20;;;;;;;20.53;97.59;99583.78;5041344;28;20839;-58
2021/07/13 10:40:14;;;;;;;7.32;6.68;;;;;;;20.59;98.54;99591.22;5038115;28;20052;-56
2021/07/13 10:42:41;;;;;;;7.25;6.65;;;;;;;20.62;100.00;99581.97;5054805;28;20102;-57
2021/07/13 10:45:33;;;;;;;7.78;6.93;;;;;;;20.63;100.00;99586.38;5058164;28;20167;-58
2021/07/13 10:48:22;;;;;;;7.43;6.68;;;;;;;20.62;100.00;99585.53;5042837;28;20141;-58
2021/07/13 10:50:53;;;;;;;8.88;6.70;;;;;;;20.59;99.23;99588.53;5053300;28;20055;-57
2021/07/13 10:53:39;;;;;;;7.88;7.07;;;;;;;20.57;99.73;99585.16;5050577;28;20048;-57
2021/07/13 10:56:06;;;;;;;8.68;6.82;;;;;;;20.57;99.49;99585.16;5029426;28;20080;-58
2021/07/13 10:58:34;;;;;;;11.10;7.15;;;;;;;20.58;99.40;99586.84;5032315;28;20053;-57
2021/07/13 11:01:08;;;;;;;8.55;7.18;;;;;;;20.60;99.48;99573.25;5026151;28;20049;-57
2021/07/13 11:03:37;;;;;;;8.00;7.20;;;;;;;20.63;100.00;99568.38;5030565;28;20056;-56
2021/07/13 11:06:16;;;;;;;7.57;6.88;;;;;;;20.69;100.00;99563.38;5026412;28;20042;-56
2021/07/13 11:08:49;;;;;;;7.55;6.85;;;;;;;20.76;100.00;99567.16;5017255;28;20054;-56
2021/07/13 11:11:18;;;;;;;9.60;8.60;;;;;;;20.80;100.00;99569.34;5020282;28;20647;-59
2021/07/13 11:13:52;;;;;;;8.80;7.95;;;;;;;20.84;100.00;99581.50;5020993;28;20057;-56
2021/07/13 11:16:27;;;;;;;12.70;7.70;;;;;;;20.82;100.00;99605.03;5021371;28;20056;-57
2021/07/13 11:18:55;;;;;;;8.52;7.50;;;;;;;20.78;100.00;99617.09;5025346;28;20125;-56
2021/07/13 11:21:28;;;;;;;9.75;8.48;;;;;;;20.71;100.00;99617.88;5031384;28;20049;-57
2021/07/13 11:24:09;;;;;;;8.38;7.57;;;;;;;20.72;100.00;99616.88;5022175;28;20515;-56
2021/07/13 11:26:38;;;;;;;11.00;7.22;;;;;;;20.77;99.19;99617.28;5009198;28;20049;-57